sensor_id;sensor_type;location;lat;lon;timestamp;P1;durP1;ratioP1;P2;durP2;ratioP2
1785;SDS011;890;48.158;11.540;2024-03-07T00:01:54;20.40;;;15.50;;
1785;SDS011;890;48.158;11.540;2024-03-07T00:04:20;18.97;;;16.80;;
1785;SDS011;890;48.158;11.540;2024-03-07T00:06:46;17.50;;;15.43;;
1785;SDS011;890;48.158;11.540;2024-03-07T00:09:11;19.63;;;16.13;;
1785;SDS011;890;48.158;11.540;2024-03-07T00:11:37;19.27;;;16.57;;
1785;SDS011;890;48.158;11.540;2024-03-07T00:14:03;20.63;;;16.90;;
1785;SDS011;890;48.158;11.540;2024-03-07T00:16:31;18.70;;;14.73;;
1785;SDS011;890;48.158;11.540;2024-03-07T00:18:58;20.30;;;15.60;;
1785;SDS011;890;48.158;11.540;2024-03-07T00:21:25;20.03;;;16.47;;
1785;SDS011;890;48.158;11.540;2024-03-07T00:23:51;18.77;;;15.97;;
1785;SDS011;890;48.158;11.540;2024-03-07T00:26:17;19.67;;;15.70;;
1785;SDS011;890;48.158;11.540;2024-03-07T00:28:43;19.87;;;16.67;;
1785;SDS011;890;48.158;11.540;2024-03-07T00:31:09;18.83;;;16.47;;
1785;SDS011;890;48.158;11.540;2024-03-07T00:33:35;23.03;;;17.10;;
1785;SDS011;890;48.158;11.540;2024-03-07T00:36:00;21.40;;;17.20;;
1785;SDS011;890;48.158;11.540;2024-03-07T00:38:26;21.87;;;17.10;;
1785;SDS011;890;48.158;11.540;2024-03-07T00:40:51;21.17;;;16.77;;
1785;SDS011;890;48.158;11.540;2024-03-07T00:43:17;25.47;;;17.60;;
1785;SDS011;890;48.158;11.540;2024-03-07T00:45:43;21.17;;;16.93;;
1785;SDS011;890;48.158;11.540;2024-03-07T00:48:08;21.37;;;17.80;;
1785;SDS011;890;48.158;11.540;2024-03-07T00:50:36;24.10;;;18.67;;
1785;SDS011;890;48.158;11.540;2024-03-07T00:53:01;21.30;;;17.10;;
1785;SDS011;890;48.158;11.540;2024-03-07T00:55:27;24.60;;;18.63;;
1785;SDS011;890;48.158;11.540;2024-03-07T00:57:53;24.67;;;18.47;;
1785;SDS011;890;48.158;11.540;2024-03-07T01:00:19;24.77;;;18.30;;
1785;SDS011;890;48.158;11.540;2024-03-07T01:02:46;24.13;;;19.30;;
1785;SDS011;890;48.158;11.540;2024-03-07T01:05:12;24.93;;;19.27;;
1785;SDS011;890;48.158;11.540;2024-03-07T01:07:38;26.17;;;18.80;;
1785;SDS011;890;48.158;11.540;2024-03-07T01:10:05;22.87;;;18.13;;
1785;SDS011;890;48.158;11.540;2024-03-07T01:12:32;23.63;;;18.10;;
1785;SDS011;890;48.158;11.540;2024-03-07T01:14:59;26.80;;;20.00;;
1785;SDS011;890;48.158;11.540;2024-03-07T01:17:25;29.30;;;20.60;;
1785;SDS011;890;48.158;11.540;2024-03-07T01:19:51;26.63;;;19.27;;
1785;SDS011;890;48.158;11.540;2024-03-07T01:22:17;26.50;;;19.33;;
1785;SDS011;890;48.158;11.540;2024-03-07T01:24:43;28.67;;;20.27;;
1785;SDS011;890;48.158;11.540;2024-03-07T01:27:09;28.00;;;21.00;;
1785;SDS011;890;48.158;11.540;2024-03-07T01:29:34;29.67;;;20.73;;
1785;SDS011;890;48.158;11.540;2024-03-07T01:32:00;28.40;;;21.27;;
1785;SDS011;890;48.158;11.540;2024-03-07T01:34:28;29.87;;;21.07;;
1785;SDS011;890;48.158;11.540;2024-03-07T01:36:54;26.87;;;21.30;;
1785;SDS011;890;48.158;11.540;2024-03-07T01:39:19;29.33;;;20.53;;
1785;SDS011;890;48.158;11.540;2024-03-07T01:41:45;29.10;;;22.60;;
1785;SDS011;890;48.158;11.540;2024-03-07T01:44:10;28.47;;;21.87;;
1785;SDS011;890;48.158;11.540;2024-03-07T01:46:36;28.00;;;20.63;;
1785;SDS011;890;48.158;11.540;2024-03-07T01:49:02;29.80;;;22.37;;
1785;SDS011;890;48.158;11.540;2024-03-07T01:51:28;30.57;;;23.10;;
1785;SDS011;890;48.158;11.540;2024-03-07T01:53:54;31.73;;;23.20;;
1785;SDS011;890;48.158;11.540;2024-03-07T01:56:20;35.77;;;23.40;;
1785;SDS011;890;48.158;11.540;2024-03-07T01:58:46;29.47;;;21.40;;
1785;SDS011;890;48.158;11.540;2024-03-07T02:01:12;28.97;;;21.57;;
1785;SDS011;890;48.158;11.540;2024-03-07T02:03:40;31.37;;;22.80;;
1785;SDS011;890;48.158;11.540;2024-03-07T02:06:07;29.53;;;21.27;;
1785;SDS011;890;48.158;11.540;2024-03-07T02:08:33;29.10;;;23.00;;
1785;SDS011;890;48.158;11.540;2024-03-07T02:10:59;31.80;;;22.33;;
1785;SDS011;890;48.158;11.540;2024-03-07T02:13:25;28.40;;;21.07;;
1785;SDS011;890;48.158;11.540;2024-03-07T02:15:52;28.87;;;21.40;;
1785;SDS011;890;48.158;11.540;2024-03-07T02:18:19;30.90;;;22.47;;
1785;SDS011;890;48.158;11.540;2024-03-07T02:20:45;28.80;;;21.00;;
1785;SDS011;890;48.158;11.540;2024-03-07T02:23:12;28.77;;;22.67;;
1785;SDS011;890;48.158;11.540;2024-03-07T02:25:38;33.03;;;24.67;;
1785;SDS011;890;48.158;11.540;2024-03-07T02:28:04;33.43;;;24.33;;
1785;SDS011;890;48.158;11.540;2024-03-07T02:30:30;32.87;;;23.50;;
1785;SDS011;890;48.158;11.540;2024-03-07T02:32:57;36.80;;;26.40;;
1785;SDS011;890;48.158;11.540;2024-03-07T02:35:32;34.40;;;24.17;;
1785;SDS011;890;48.158;11.540;2024-03-07T02:37:59;34.27;;;24.40;;
1785;SDS011;890;48.158;11.540;2024-03-07T02:40:25;31.37;;;24.40;;
1785;SDS011;890;48.158;11.540;2024-03-07T02:42:51;34.03;;;25.30;;
1785;SDS011;890;48.158;11.540;2024-03-07T02:45:16;34.60;;;24.53;;
1785;SDS011;890;48.158;11.540;2024-03-07T02:47:42;37.37;;;25.50;;
1785;SDS011;890;48.158;11.540;2024-03-07T02:50:09;33.40;;;24.40;;
1785;SDS011;890;48.158;11.540;2024-03-07T02:52:35;34.30;;;24.20;;
1785;SDS011;890;48.158;11.540;2024-03-07T02:55:01;33.53;;;24.03;;
1785;SDS011;890;48.158;11.540;2024-03-07T02:57:30;38.80;;;24.63;;
1785;SDS011;890;48.158;11.540;2024-03-07T02:59:56;36.30;;;25.70;;
1785;SDS011;890;48.158;11.540;2024-03-07T03:02:22;35.87;;;24.70;;
1785;SDS011;890;48.158;11.540;2024-03-07T03:04:47;32.50;;;25.10;;
1785;SDS011;890;48.158;11.540;2024-03-07T03:07:13;35.07;;;24.90;;
1785;SDS011;890;48.158;11.540;2024-03-07T03:09:39;32.23;;;23.20;;
1785;SDS011;890;48.158;11.540;2024-03-07T03:12:08;32.13;;;24.77;;
1785;SDS011;890;48.158;11.540;2024-03-07T03:14:34;36.47;;;26.57;;
1785;SDS011;890;48.158;11.540;2024-03-07T03:17:00;33.40;;;24.13;;
1785;SDS011;890;48.158;11.540;2024-03-07T03:19:26;36.30;;;25.40;;
1785;SDS011;890;48.158;11.540;2024-03-07T03:21:52;32.53;;;24.50;;
1785;SDS011;890;48.158;11.540;2024-03-07T03:24:17;39.57;;;27.33;;
1785;SDS011;890;48.158;11.540;2024-03-07T03:26:43;37.80;;;24.97;;
1785;SDS011;890;48.158;11.540;2024-03-07T03:29:09;37.67;;;26.80;;
1785;SDS011;890;48.158;11.540;2024-03-07T03:31:36;41.57;;;27.33;;
1785;SDS011;890;48.158;11.540;2024-03-07T03:34:02;39.10;;;26.80;;
1785;SDS011;890;48.158;11.540;2024-03-07T03:36:28;36.43;;;27.40;;
1785;SDS011;890;48.158;11.540;2024-03-07T03:38:54;37.17;;;27.00;;
1785;SDS011;890;48.158;11.540;2024-03-07T03:41:20;39.13;;;26.97;;
1785;SDS011;890;48.158;11.540;2024-03-07T03:43:46;37.70;;;27.13;;
1785;SDS011;890;48.158;11.540;2024-03-07T03:46:12;35.77;;;25.67;;
1785;SDS011;890;48.158;11.540;2024-03-07T03:48:41;34.63;;;26.27;;
1785;SDS011;890;48.158;11.540;2024-03-07T03:51:09;42.13;;;27.73;;
1785;SDS011;890;48.158;11.540;2024-03-07T03:53:38;39.17;;;29.47;;
1785;SDS011;890;48.158;11.540;2024-03-07T03:56:04;41.07;;;28.77;;
1785;SDS011;890;48.158;11.540;2024-03-07T03:58:31;41.70;;;27.40;;
1785;SDS011;890;48.158;11.540;2024-03-07T04:00:56;40.80;;;29.17;;
1785;SDS011;890;48.158;11.540;2024-03-07T04:03:23;38.97;;;28.53;;
1785;SDS011;890;48.158;11.540;2024-03-07T04:05:49;43.47;;;27.63;;
1785;SDS011;890;48.158;11.540;2024-03-07T04:08:15;38.77;;;29.07;;
1785;SDS011;890;48.158;11.540;2024-03-07T04:10:40;42.20;;;29.80;;
1785;SDS011;890;48.158;11.540;2024-03-07T04:13:06;41.97;;;31.60;;
1785;SDS011;890;48.158;11.540;2024-03-07T04:15:32;40.47;;;30.07;;
1785;SDS011;890;48.158;11.540;2024-03-07T04:17:58;43.57;;;31.50;;
1785;SDS011;890;48.158;11.540;2024-03-07T04:20:24;42.47;;;30.10;;
1785;SDS011;890;48.158;11.540;2024-03-07T04:22:50;40.47;;;29.43;;
1785;SDS011;890;48.158;11.540;2024-03-07T04:25:16;44.50;;;31.67;;
1785;SDS011;890;48.158;11.540;2024-03-07T04:27:42;44.87;;;32.27;;
1785;SDS011;890;48.158;11.540;2024-03-07T04:30:07;44.43;;;32.27;;
1785;SDS011;890;48.158;11.540;2024-03-07T04:32:37;44.47;;;34.03;;
1785;SDS011;890;48.158;11.540;2024-03-07T04:35:07;44.37;;;33.83;;
1785;SDS011;890;48.158;11.540;2024-03-07T04:37:36;47.20;;;33.80;;
1785;SDS011;890;48.158;11.540;2024-03-07T04:40:05;45.70;;;33.40;;
1785;SDS011;890;48.158;11.540;2024-03-07T04:42:40;49.10;;;32.77;;
1785;SDS011;890;48.158;11.540;2024-03-07T04:45:15;43.40;;;31.53;;
1785;SDS011;890;48.158;11.540;2024-03-07T04:47:41;43.63;;;31.00;;
1785;SDS011;890;48.158;11.540;2024-03-07T04:50:11;45.47;;;31.90;;
1785;SDS011;890;48.158;11.540;2024-03-07T04:52:40;48.60;;;33.20;;
1785;SDS011;890;48.158;11.540;2024-03-07T04:55:06;43.20;;;32.70;;
1785;SDS011;890;48.158;11.540;2024-03-07T04:57:36;49.87;;;34.80;;
1785;SDS011;890;48.158;11.540;2024-03-07T05:00:04;46.40;;;33.67;;
1785;SDS011;890;48.158;11.540;2024-03-07T05:02:31;49.23;;;33.40;;
1785;SDS011;890;48.158;11.540;2024-03-07T05:04:56;44.87;;;32.80;;
1785;SDS011;890;48.158;11.540;2024-03-07T05:07:22;45.87;;;32.50;;
1785;SDS011;890;48.158;11.540;2024-03-07T05:09:48;50.13;;;34.40;;
1785;SDS011;890;48.158;11.540;2024-03-07T05:12:14;43.93;;;32.00;;
1785;SDS011;890;48.158;11.540;2024-03-07T05:14:39;47.50;;;34.43;;
1785;SDS011;890;48.158;11.540;2024-03-07T05:17:05;49.20;;;34.03;;
1785;SDS011;890;48.158;11.540;2024-03-07T05:19:33;49.80;;;34.80;;
1785;SDS011;890;48.158;11.540;2024-03-07T05:21:59;47.77;;;32.90;;
1785;SDS011;890;48.158;11.540;2024-03-07T05:24:25;49.23;;;34.67;;
1785;SDS011;890;48.158;11.540;2024-03-07T05:26:51;49.50;;;34.90;;
1785;SDS011;890;48.158;11.540;2024-03-07T05:29:18;51.87;;;34.20;;
1785;SDS011;890;48.158;11.540;2024-03-07T05:31:43;55.20;;;36.77;;
1785;SDS011;890;48.158;11.540;2024-03-07T05:34:13;47.10;;;33.70;;
1785;SDS011;890;48.158;11.540;2024-03-07T05:36:45;44.10;;;34.47;;
1785;SDS011;890;48.158;11.540;2024-03-07T05:39:12;46.53;;;35.20;;
1785;SDS011;890;48.158;11.540;2024-03-07T05:41:40;51.67;;;37.03;;
1785;SDS011;890;48.158;11.540;2024-03-07T05:44:06;49.97;;;36.80;;
1785;SDS011;890;48.158;11.540;2024-03-07T05:46:41;46.03;;;34.07;;
1785;SDS011;890;48.158;11.540;2024-03-07T05:49:14;53.20;;;34.53;;
1785;SDS011;890;48.158;11.540;2024-03-07T05:51:42;48.30;;;35.27;;
1785;SDS011;890;48.158;11.540;2024-03-07T05:54:09;49.70;;;36.57;;
1785;SDS011;890;48.158;11.540;2024-03-07T05:56:38;50.63;;;36.57;;
1785;SDS011;890;48.158;11.540;2024-03-07T05:59:07;51.20;;;38.30;;
1785;SDS011;890;48.158;11.540;2024-03-07T06:01:34;47.60;;;35.50;;
1785;SDS011;890;48.158;11.540;2024-03-07T06:04:00;45.83;;;33.47;;
1785;SDS011;890;48.158;11.540;2024-03-07T06:06:27;48.90;;;35.90;;
1785;SDS011;890;48.158;11.540;2024-03-07T06:08:53;50.40;;;37.20;;
1785;SDS011;890;48.158;11.540;2024-03-07T06:11:19;50.50;;;36.37;;
1785;SDS011;890;48.158;11.540;2024-03-07T06:13:49;50.73;;;35.50;;
1785;SDS011;890;48.158;11.540;2024-03-07T06:16:14;50.43;;;37.53;;
1785;SDS011;890;48.158;11.540;2024-03-07T06:18:41;52.47;;;36.77;;
1785;SDS011;890;48.158;11.540;2024-03-07T06:21:07;49.23;;;36.80;;
1785;SDS011;890;48.158;11.540;2024-03-07T06:23:33;49.90;;;36.63;;
1785;SDS011;890;48.158;11.540;2024-03-07T06:25:59;50.00;;;35.80;;
1785;SDS011;890;48.158;11.540;2024-03-07T06:28:25;50.90;;;35.30;;
1785;SDS011;890;48.158;11.540;2024-03-07T06:30:54;48.97;;;35.10;;
1785;SDS011;890;48.158;11.540;2024-03-07T06:33:20;54.27;;;36.87;;
1785;SDS011;890;48.158;11.540;2024-03-07T06:35:47;48.30;;;35.37;;
1785;SDS011;890;48.158;11.540;2024-03-07T06:38:13;50.67;;;37.80;;
1785;SDS011;890;48.158;11.540;2024-03-07T06:40:39;50.67;;;37.70;;
1785;SDS011;890;48.158;11.540;2024-03-07T06:43:08;54.43;;;36.70;;
1785;SDS011;890;48.158;11.540;2024-03-07T06:45:37;53.77;;;37.33;;
1785;SDS011;890;48.158;11.540;2024-03-07T06:48:06;53.73;;;35.93;;
1785;SDS011;890;48.158;11.540;2024-03-07T06:50:36;47.97;;;36.37;;
1785;SDS011;890;48.158;11.540;2024-03-07T06:53:02;52.70;;;36.37;;
1785;SDS011;890;48.158;11.540;2024-03-07T06:55:29;51.00;;;35.00;;
1785;SDS011;890;48.158;11.540;2024-03-07T06:57:54;53.40;;;36.40;;
1785;SDS011;890;48.158;11.540;2024-03-07T07:00:20;54.50;;;36.60;;
1785;SDS011;890;48.158;11.540;2024-03-07T07:02:46;51.20;;;36.53;;
1785;SDS011;890;48.158;11.540;2024-03-07T07:05:12;48.87;;;36.13;;
1785;SDS011;890;48.158;11.540;2024-03-07T07:07:41;51.67;;;36.80;;
1785;SDS011;890;48.158;11.540;2024-03-07T07:10:09;51.53;;;34.90;;
1785;SDS011;890;48.158;11.540;2024-03-07T07:12:46;48.57;;;34.87;;
1785;SDS011;890;48.158;11.540;2024-03-07T07:15:15;49.07;;;34.10;;
1785;SDS011;890;48.158;11.540;2024-03-07T07:17:45;50.60;;;35.90;;
1785;SDS011;890;48.158;11.540;2024-03-07T07:20:12;48.53;;;34.73;;
1785;SDS011;890;48.158;11.540;2024-03-07T07:22:40;56.00;;;35.50;;
1785;SDS011;890;48.158;11.540;2024-03-07T07:25:06;50.73;;;36.60;;
1785;SDS011;890;48.158;11.540;2024-03-07T07:27:45;46.57;;;35.53;;
1785;SDS011;890;48.158;11.540;2024-03-07T07:30:13;52.90;;;36.37;;
1785;SDS011;890;48.158;11.540;2024-03-07T07:32:43;51.23;;;35.10;;
1785;SDS011;890;48.158;11.540;2024-03-07T07:35:10;49.37;;;34.70;;
1785;SDS011;890;48.158;11.540;2024-03-07T07:37:58;52.03;;;33.30;;
1785;SDS011;890;48.158;11.540;2024-03-07T07:40:24;48.37;;;34.90;;
1785;SDS011;890;48.158;11.540;2024-03-07T07:42:52;48.77;;;36.03;;
1785;SDS011;890;48.158;11.540;2024-03-07T07:45:19;48.60;;;36.20;;
1785;SDS011;890;48.158;11.540;2024-03-07T07:47:47;47.83;;;34.70;;
1785;SDS011;890;48.158;11.540;2024-03-07T07:50:17;46.43;;;35.00;;
1785;SDS011;890;48.158;11.540;2024-03-07T07:52:45;48.27;;;34.00;;
1785;SDS011;890;48.158;11.540;2024-03-07T07:55:14;50.80;;;35.00;;
1785;SDS011;890;48.158;11.540;2024-03-07T07:57:42;50.83;;;36.27;;
1785;SDS011;890;48.158;11.540;2024-03-07T08:00:09;61.60;;;36.13;;
1785;SDS011;890;48.158;11.540;2024-03-07T08:02:37;53.03;;;34.40;;
1785;SDS011;890;48.158;11.540;2024-03-07T08:05:02;49.20;;;33.67;;
1785;SDS011;890;48.158;11.540;2024-03-07T08:07:30;45.23;;;33.80;;
1785;SDS011;890;48.158;11.540;2024-03-07T08:09:56;47.90;;;33.93;;
1785;SDS011;890;48.158;11.540;2024-03-07T08:12:22;46.87;;;33.30;;
1785;SDS011;890;48.158;11.540;2024-03-07T08:14:47;51.13;;;34.50;;
1785;SDS011;890;48.158;11.540;2024-03-07T08:17:13;45.77;;;34.50;;
1785;SDS011;890;48.158;11.540;2024-03-07T08:19:39;48.50;;;35.80;;
1785;SDS011;890;48.158;11.540;2024-03-07T08:22:05;43.03;;;32.83;;
1785;SDS011;890;48.158;11.540;2024-03-07T08:24:31;46.43;;;33.67;;
1785;SDS011;890;48.158;11.540;2024-03-07T08:26:57;48.30;;;35.30;;
1785;SDS011;890;48.158;11.540;2024-03-07T08:29:22;46.83;;;35.00;;
1785;SDS011;890;48.158;11.540;2024-03-07T08:31:49;47.50;;;34.10;;
1785;SDS011;890;48.158;11.540;2024-03-07T08:34:14;47.13;;;32.50;;
1785;SDS011;890;48.158;11.540;2024-03-07T08:36:40;45.37;;;34.37;;
1785;SDS011;890;48.158;11.540;2024-03-07T08:39:06;49.67;;;33.90;;
1785;SDS011;890;48.158;11.540;2024-03-07T08:41:36;48.33;;;34.13;;
1785;SDS011;890;48.158;11.540;2024-03-07T08:44:06;48.37;;;34.50;;
1785;SDS011;890;48.158;11.540;2024-03-07T08:46:31;48.10;;;34.57;;
1785;SDS011;890;48.158;11.540;2024-03-07T08:48:57;49.10;;;35.00;;
1785;SDS011;890;48.158;11.540;2024-03-07T08:51:23;45.93;;;32.80;;
1785;SDS011;890;48.158;11.540;2024-03-07T08:53:48;43.33;;;33.53;;
1785;SDS011;890;48.158;11.540;2024-03-07T08:56:15;47.90;;;34.70;;
1785;SDS011;890;48.158;11.540;2024-03-07T08:58:41;44.00;;;32.90;;
1785;SDS011;890;48.158;11.540;2024-03-07T09:01:08;43.50;;;31.50;;
1785;SDS011;890;48.158;11.540;2024-03-07T09:03:34;47.43;;;33.27;;
1785;SDS011;890;48.158;11.540;2024-03-07T09:05:59;46.87;;;33.57;;
1785;SDS011;890;48.158;11.540;2024-03-07T09:08:25;42.43;;;32.57;;
1785;SDS011;890;48.158;11.540;2024-03-07T09:10:51;44.20;;;31.33;;
1785;SDS011;890;48.158;11.540;2024-03-07T09:13:20;44.77;;;32.00;;
1785;SDS011;890;48.158;11.540;2024-03-07T09:15:48;40.17;;;29.70;;
1785;SDS011;890;48.158;11.540;2024-03-07T09:18:14;44.93;;;31.77;;
1785;SDS011;890;48.158;11.540;2024-03-07T09:20:41;44.00;;;31.60;;
1785;SDS011;890;48.158;11.540;2024-03-07T09:23:06;46.10;;;31.60;;
1785;SDS011;890;48.158;11.540;2024-03-07T09:25:32;40.20;;;28.57;;
1785;SDS011;890;48.158;11.540;2024-03-07T09:27:58;40.17;;;28.70;;
1785;SDS011;890;48.158;11.540;2024-03-07T09:30:25;41.53;;;28.97;;
1785;SDS011;890;48.158;11.540;2024-03-07T09:32:52;39.70;;;30.53;;
1785;SDS011;890;48.158;11.540;2024-03-07T09:35:21;38.90;;;27.10;;
1785;SDS011;890;48.158;11.540;2024-03-07T09:37:47;35.10;;;25.10;;
1785;SDS011;890;48.158;11.540;2024-03-07T09:40:13;36.73;;;25.37;;
1785;SDS011;890;48.158;11.540;2024-03-07T09:42:46;36.00;;;26.73;;
1785;SDS011;890;48.158;11.540;2024-03-07T09:45:13;36.97;;;27.07;;
1785;SDS011;890;48.158;11.540;2024-03-07T09:47:41;37.30;;;27.47;;
1785;SDS011;890;48.158;11.540;2024-03-07T09:50:09;35.43;;;26.50;;
1785;SDS011;890;48.158;11.540;2024-03-07T09:52:35;37.30;;;27.23;;
1785;SDS011;890;48.158;11.540;2024-03-07T09:55:01;35.83;;;26.20;;
1785;SDS011;890;48.158;11.540;2024-03-07T09:57:27;32.30;;;24.43;;
1785;SDS011;890;48.158;11.540;2024-03-07T09:59:58;34.63;;;25.30;;
1785;SDS011;890;48.158;11.540;2024-03-07T10:02:27;35.80;;;25.00;;
1785;SDS011;890;48.158;11.540;2024-03-07T10:04:57;30.27;;;22.83;;
1785;SDS011;890;48.158;11.540;2024-03-07T10:07:23;32.60;;;24.93;;
1785;SDS011;890;48.158;11.540;2024-03-07T10:09:49;29.43;;;22.90;;
1785;SDS011;890;48.158;11.540;2024-03-07T10:12:17;32.37;;;22.37;;
1785;SDS011;890;48.158;11.540;2024-03-07T10:14:50;35.87;;;23.87;;
1785;SDS011;890;48.158;11.540;2024-03-07T10:17:18;29.00;;;21.17;;
1785;SDS011;890;48.158;11.540;2024-03-07T10:19:47;34.37;;;21.90;;
1785;SDS011;890;48.158;11.540;2024-03-07T10:22:15;32.40;;;23.67;;
1785;SDS011;890;48.158;11.540;2024-03-07T10:24:55;31.67;;;23.30;;
1785;SDS011;890;48.158;11.540;2024-03-07T10:27:22;31.40;;;23.13;;
1785;SDS011;890;48.158;11.540;2024-03-07T10:29:49;34.70;;;24.27;;
1785;SDS011;890;48.158;11.540;2024-03-07T10:32:20;33.50;;;23.80;;
1785;SDS011;890;48.158;11.540;2024-03-07T10:34:47;31.60;;;22.50;;
1785;SDS011;890;48.158;11.540;2024-03-07T10:37:15;32.80;;;23.87;;
1785;SDS011;890;48.158;11.540;2024-03-07T10:39:44;29.93;;;22.87;;
1785;SDS011;890;48.158;11.540;2024-03-07T10:42:14;35.70;;;24.17;;
1785;SDS011;890;48.158;11.540;2024-03-07T10:44:44;32.73;;;22.80;;
1785;SDS011;890;48.158;11.540;2024-03-07T10:47:20;38.00;;;24.00;;
1785;SDS011;890;48.158;11.540;2024-03-07T10:52:40;30.90;;;22.20;;
1785;SDS011;890;48.158;11.540;2024-03-07T10:57:56;31.17;;;22.77;;
1785;SDS011;890;48.158;11.540;2024-03-07T11:00:36;32.23;;;21.77;;
1785;SDS011;890;48.158;11.540;2024-03-07T11:03:10;29.50;;;21.03;;
1785;SDS011;890;48.158;11.540;2024-03-07T11:05:36;31.70;;;21.37;;
1785;SDS011;890;48.158;11.540;2024-03-07T11:08:03;30.30;;;21.57;;
1785;SDS011;890;48.158;11.540;2024-03-07T11:10:48;30.70;;;21.67;;
1785;SDS011;890;48.158;11.540;2024-03-07T11:13:13;28.10;;;18.80;;
1785;SDS011;890;48.158;11.540;2024-03-07T11:15:42;25.47;;;18.00;;
1785;SDS011;890;48.158;11.540;2024-03-07T11:18:11;29.50;;;18.20;;
1785;SDS011;890;48.158;11.540;2024-03-07T11:20:38;26.03;;;18.77;;
1785;SDS011;890;48.158;11.540;2024-03-07T11:25:53;29.20;;;19.57;;
1785;SDS011;890;48.158;11.540;2024-03-07T11:28:32;29.17;;;18.70;;
1785;SDS011;890;48.158;11.540;2024-03-07T11:31:15;31.07;;;19.47;;
1785;SDS011;890;48.158;11.540;2024-03-07T11:34:14;28.30;;;19.13;;
1785;SDS011;890;48.158;11.540;2024-03-07T11:36:44;31.77;;;21.03;;
1785;SDS011;890;48.158;11.540;2024-03-07T11:42:06;27.37;;;19.80;;
1785;SDS011;890;48.158;11.540;2024-03-07T11:44:33;26.47;;;19.17;;
1785;SDS011;890;48.158;11.540;2024-03-07T11:47:05;28.93;;;18.80;;
1785;SDS011;890;48.158;11.540;2024-03-07T11:49:36;25.17;;;17.77;;
1785;SDS011;890;48.158;11.540;2024-03-07T11:52:05;28.23;;;16.50;;
1785;SDS011;890;48.158;11.540;2024-03-07T11:54:38;26.93;;;19.70;;
1785;SDS011;890;48.158;11.540;2024-03-07T11:57:20;30.30;;;20.20;;
1785;SDS011;890;48.158;11.540;2024-03-07T11:59:51;27.90;;;17.30;;
1785;SDS011;890;48.158;11.540;2024-03-07T12:02:18;29.77;;;19.57;;
1785;SDS011;890;48.158;11.540;2024-03-07T12:04:49;27.27;;;19.70;;
1785;SDS011;890;48.158;11.540;2024-03-07T12:07:15;31.97;;;21.37;;
1785;SDS011;890;48.158;11.540;2024-03-07T12:09:47;29.40;;;20.40;;
1785;SDS011;890;48.158;11.540;2024-03-07T12:12:21;31.77;;;20.77;;
1785;SDS011;890;48.158;11.540;2024-03-07T12:14:47;28.63;;;20.90;;
1785;SDS011;890;48.158;11.540;2024-03-07T12:17:16;30.90;;;20.63;;
1785;SDS011;890;48.158;11.540;2024-03-07T12:19:42;31.60;;;20.70;;
1785;SDS011;890;48.158;11.540;2024-03-07T12:22:08;28.67;;;20.60;;
1785;SDS011;890;48.158;11.540;2024-03-07T12:24:39;32.07;;;21.10;;
1785;SDS011;890;48.158;11.540;2024-03-07T12:27:07;28.27;;;20.47;;
1785;SDS011;890;48.158;11.540;2024-03-07T12:29:40;30.27;;;20.67;;
1785;SDS011;890;48.158;11.540;2024-03-07T12:32:07;30.37;;;20.63;;
1785;SDS011;890;48.158;11.540;2024-03-07T12:34:36;32.20;;;20.50;;
1785;SDS011;890;48.158;11.540;2024-03-07T12:37:10;34.03;;;21.90;;
1785;SDS011;890;48.158;11.540;2024-03-07T12:39:40;27.73;;;19.20;;
1785;SDS011;890;48.158;11.540;2024-03-07T12:42:17;28.37;;;19.80;;
1785;SDS011;890;48.158;11.540;2024-03-07T12:44:44;29.50;;;20.40;;
1785;SDS011;890;48.158;11.540;2024-03-07T12:47:12;32.60;;;19.87;;
1785;SDS011;890;48.158;11.540;2024-03-07T12:49:39;32.53;;;21.50;;
1785;SDS011;890;48.158;11.540;2024-03-07T12:52:05;26.50;;;20.00;;
1785;SDS011;890;48.158;11.540;2024-03-07T12:54:37;29.37;;;20.10;;
1785;SDS011;890;48.158;11.540;2024-03-07T12:57:08;27.70;;;19.67;;
1785;SDS011;890;48.158;11.540;2024-03-07T12:59:35;30.03;;;20.97;;
1785;SDS011;890;48.158;11.540;2024-03-07T13:02:04;29.83;;;20.70;;
1785;SDS011;890;48.158;11.540;2024-03-07T13:04:32;33.03;;;21.00;;
1785;SDS011;890;48.158;11.540;2024-03-07T13:06:58;27.57;;;20.37;;
1785;SDS011;890;48.158;11.540;2024-03-07T13:09:29;30.67;;;21.80;;
1785;SDS011;890;48.158;11.540;2024-03-07T13:11:56;30.30;;;21.80;;
1785;SDS011;890;48.158;11.540;2024-03-07T13:14:34;32.77;;;22.33;;
1785;SDS011;890;48.158;11.540;2024-03-07T13:17:04;29.23;;;22.10;;
1785;SDS011;890;48.158;11.540;2024-03-07T13:19:31;33.97;;;21.20;;
1785;SDS011;890;48.158;11.540;2024-03-07T13:21:57;29.17;;;20.20;;
1785;SDS011;890;48.158;11.540;2024-03-07T13:24:24;31.27;;;21.13;;
1785;SDS011;890;48.158;11.540;2024-03-07T13:26:50;29.93;;;21.40;;
1785;SDS011;890;48.158;11.540;2024-03-07T13:29:17;26.90;;;18.80;;
1785;SDS011;890;48.158;11.540;2024-03-07T13:31:49;29.90;;;19.77;;
1785;SDS011;890;48.158;11.540;2024-03-07T13:34:16;25.80;;;18.97;;
1785;SDS011;890;48.158;11.540;2024-03-07T13:36:42;32.10;;;19.40;;
1785;SDS011;890;48.158;11.540;2024-03-07T13:39:09;26.50;;;18.97;;
1785;SDS011;890;48.158;11.540;2024-03-07T13:41:42;30.10;;;19.90;;
1785;SDS011;890;48.158;11.540;2024-03-07T13:44:13;26.57;;;18.33;;
1785;SDS011;890;48.158;11.540;2024-03-07T13:46:39;23.97;;;18.17;;
1785;SDS011;890;48.158;11.540;2024-03-07T13:49:05;25.73;;;18.60;;
1785;SDS011;890;48.158;11.540;2024-03-07T13:51:40;25.10;;;17.40;;
1785;SDS011;890;48.158;11.540;2024-03-07T13:54:15;27.13;;;18.20;;
1785;SDS011;890;48.158;11.540;2024-03-07T14:16:49;27.23;;;18.40;;
1785;SDS011;890;48.158;11.540;2024-03-07T14:19:31;28.77;;;18.00;;
1785;SDS011;890;48.158;11.540;2024-03-07T14:25:05;31.10;;;20.23;;
1785;SDS011;890;48.158;11.540;2024-03-07T14:31:05;28.90;;;19.37;;
1785;SDS011;890;48.158;11.540;2024-03-07T14:33:47;28.37;;;21.50;;
1785;SDS011;890;48.158;11.540;2024-03-07T14:36:16;28.90;;;20.47;;
1785;SDS011;890;48.158;11.540;2024-03-07T14:38:47;31.60;;;21.97;;
1785;SDS011;890;48.158;11.540;2024-03-07T14:41:19;32.73;;;22.67;;
1785;SDS011;890;48.158;11.540;2024-03-07T14:43:50;32.57;;;22.67;;
1785;SDS011;890;48.158;11.540;2024-03-07T14:46:17;32.00;;;22.20;;
1785;SDS011;890;48.158;11.540;2024-03-07T14:48:43;29.47;;;20.50;;
1785;SDS011;890;48.158;11.540;2024-03-07T14:51:09;30.17;;;21.17;;
1785;SDS011;890;48.158;11.540;2024-03-07T14:53:38;30.53;;;21.67;;
1785;SDS011;890;48.158;11.540;2024-03-07T14:56:08;31.47;;;22.40;;
1785;SDS011;890;48.158;11.540;2024-03-07T14:58:35;30.07;;;21.30;;
1785;SDS011;890;48.158;11.540;2024-03-07T15:01:01;30.17;;;21.60;;
1785;SDS011;890;48.158;11.540;2024-03-07T15:03:27;28.67;;;20.20;;
1785;SDS011;890;48.158;11.540;2024-03-07T15:05:56;28.30;;;20.40;;
1785;SDS011;890;48.158;11.540;2024-03-07T15:08:21;31.70;;;22.00;;
1785;SDS011;890;48.158;11.540;2024-03-07T15:10:51;27.43;;;21.97;;
1785;SDS011;890;48.158;11.540;2024-03-07T15:13:21;30.73;;;23.10;;
1785;SDS011;890;48.158;11.540;2024-03-07T15:15:47;28.80;;;21.40;;
1785;SDS011;890;48.158;11.540;2024-03-07T15:18:13;28.73;;;20.23;;
1785;SDS011;890;48.158;11.540;2024-03-07T15:20:39;30.03;;;20.43;;
1785;SDS011;890;48.158;11.540;2024-03-07T15:23:06;28.43;;;20.73;;
1785;SDS011;890;48.158;11.540;2024-03-07T15:25:32;28.83;;;19.80;;
1785;SDS011;890;48.158;11.540;2024-03-07T15:28:01;22.13;;;17.20;;
1785;SDS011;890;48.158;11.540;2024-03-07T15:30:28;25.67;;;17.83;;